createdAt,value
2023-02-26T00:00:15.280Z,101707.13
2023-02-26T00:02:42.935Z,101718.78
2023-02-26T00:05:10.278Z,101719.00
2023-02-26T00:07:37.489Z,101714.84
2023-02-26T00:10:07.510Z,101718.59
2023-02-26T00:12:34.683Z,101724.97
2023-02-26T00:15:01.500Z,101728.75
2023-02-26T00:17:43.076Z,101729.78
2023-02-26T00:20:12.129Z,101727.22
2023-02-26T00:22:41.762Z,101737.03
2023-02-26T00:25:09.026Z,101738.88
2023-02-26T00:27:36.205Z,101731.81
2023-02-26T00:30:08.612Z,101735.44
2023-02-26T00:32:35.851Z,101733.72
2023-02-26T00:35:04.685Z,101743.44
2023-02-26T00:38:14.623Z,101742.56
2023-02-26T00:40:49.468Z,101754.94
2023-02-26T00:43:17.985Z,101761.06
2023-02-26T00:45:53.819Z,101754.00
2023-02-26T00:48:39.189Z,101760.22
2023-02-26T00:51:15.635Z,101765.56
2023-02-26T00:54:13.364Z,101778.94
2023-02-26T00:56:40.058Z,101773.66
2023-02-26T00:59:06.580Z,101771.97
2023-02-26T01:01:35.139Z,101778.25
2023-02-26T01:04:02.030Z,101780.97
2023-02-26T01:06:33.343Z,101768.66
2023-02-26T01:09:18.721Z,101778.41
2023-02-26T01:11:45.660Z,101774.00
2023-02-26T01:14:12.502Z,101781.09
2023-02-26T01:17:00.027Z,101772.25
2023-02-26T01:19:41.719Z,101778.44
2023-02-26T01:22:15.624Z,101774.88
2023-02-26T01:24:42.772Z,101766.84
2023-02-26T01:27:09.511Z,101776.59
2023-02-26T01:29:36.156Z,101779.22
2023-02-26T01:32:15.484Z,101783.63
2023-02-26T01:34:51.641Z,101790.69
2023-02-26T01:37:43.370Z,101782.75
2023-02-26T01:40:34.583Z,101782.75
2023-02-26T01:43:12.912Z,101789.84
2023-02-26T01:45:58.060Z,101795.16
2023-02-26T01:48:52.656Z,101798.69
2023-02-26T01:51:39.875Z,101806.69
2023-02-26T01:54:06.613Z,101812.03
2023-02-26T01:56:33.560Z,101803.19
2023-02-26T01:59:00.913Z,101803.19
2023-02-26T02:01:27.646Z,101817.38
2023-02-26T02:03:54.282Z,101819.19
2023-02-26T02:06:25.326Z,101824.59
2023-02-26T02:08:52.880Z,101822.94
2023-02-26T02:11:20.342Z,101820.44
2023-02-26T02:14:12.312Z,101831.09
2023-02-26T02:16:45.001Z,101831.19
2023-02-26T02:19:40.965Z,101830.47
2023-02-26T02:22:34.529Z,101831.34
2023-02-26T02:25:10.176Z,101842.91
2023-02-26T02:27:39.892Z,101844.72
2023-02-26T02:30:33.465Z,101848.31
2023-02-26T02:33:19.831Z,101852.81
2023-02-26T02:35:52.740Z,101847.59
2023-02-26T02:38:26.230Z,101860.03
2023-02-26T02:41:03.683Z,101859.22
2023-02-26T02:43:36.512Z,101854.84
2023-02-26T02:46:11.531Z,101859.34
2023-02-26T02:48:54.545Z,101860.28
2023-02-26T02:51:51.607Z,101869.19
2023-02-26T02:54:27.561Z,101868.28
2023-02-26T02:56:58.692Z,101872.75
2023-02-26T02:59:32.613Z,101875.44
2023-02-26T03:02:12.076Z,101880.81
2023-02-26T03:04:40.320Z,101879.94
2023-02-26T03:07:07.006Z,101880.00
2023-02-26T03:09:34.154Z,101880.00
2023-02-26T03:12:00.962Z,101881.84
2023-02-26T03:14:29.123Z,101888.94
2023-02-26T03:17:09.689Z,101885.41
2023-02-26T03:19:56.667Z,101903.13
2023-02-26T03:22:35.801Z,101900.56
2023-02-26T03:25:15.701Z,101903.22
2023-02-26T03:28:02.394Z,101912.09
2023-02-26T03:30:35.779Z,101914.75
2023-02-26T03:33:26.325Z,101920.06
2023-02-26T03:36:03.197Z,101914.75
2023-02-26T03:38:40.892Z,101914.75
2023-02-26T03:41:16.087Z,101927.16
2023-02-26T03:43:57.266Z,101928.03
2023-02-26T03:46:31.232Z,101933.41
2023-02-26T03:49:02.512Z,101940.53
2023-02-26T03:51:30.488Z,101941.44
2023-02-26T03:54:03.881Z,101932.69
2023-02-26T03:56:42.392Z,101928.31
2023-02-26T03:59:09.226Z,101936.34
2023-02-26T04:01:54.652Z,101933.81
2023-02-26T04:04:42.436Z,101938.28
2023-02-26T04:07:14.815Z,101947.25
2023-02-26T04:09:43.093Z,101940.25
2023-02-26T04:12:09.931Z,101943.03
2023-02-26T04:14:40.256Z,101944.91
2023-02-26T04:17:06.888Z,101957.34
2023-02-26T04:19:33.583Z,101960.97
2023-02-26T04:22:00.571Z,101960.13
2023-02-26T04:24:27.140Z,101959.28
2023-02-26T04:26:56.459Z,101970.81
2023-02-26T04:29:23.423Z,101974.38
2023-02-26T04:31:50.053Z,101974.38
2023-02-26T04:34:17.024Z,101978.81
2023-02-26T04:36:43.577Z,101982.34
2023-02-26T04:39:10.813Z,101985.88
2023-02-26T04:41:38.557Z,101980.63
2023-02-26T04:44:05.644Z,101982.41
2023-02-26T04:46:33.534Z,101990.41
2023-02-26T04:49:00.148Z,101996.66
2023-02-26T04:51:27.157Z,102001.16
2023-02-26T04:53:53.716Z,101998.56
2023-02-26T04:56:20.768Z,102012.78
2023-02-26T04:58:47.583Z,102011.06
2023-02-26T05:01:19.413Z,102010.19
2023-02-26T05:03:46.087Z,102019.06
2023-02-26T05:06:12.612Z,102018.19
2023-02-26T05:08:42.243Z,102015.53
2023-02-26T05:11:12.543Z,102017.31
2023-02-26T05:13:39.498Z,102022.63
2023-02-26T05:16:07.809Z,102027.06
2023-02-26T05:18:34.682Z,102023.56
2023-02-26T05:21:01.814Z,102028.00
2023-02-26T05:23:28.911Z,102028.03
2023-02-26T05:25:56.972Z,102032.53
2023-02-26T05:28:25.422Z,102036.06
2023-02-26T05:30:52.602Z,102036.09
2023-02-26T05:33:20.468Z,102038.75
2023-02-26T05:35:48.134Z,102042.31
2023-02-26T05:38:15.084Z,102055.59
2023-02-26T05:40:41.600Z,102046.75
2023-02-26T05:43:08.835Z,102051.19
2023-02-26T05:45:35.386Z,102053.84
2023-02-26T05:48:02.190Z,102052.09
2023-02-26T05:50:30.409Z,102054.72
2023-02-26T05:52:57.113Z,102059.09
2023-02-26T05:55:23.779Z,102064.38
2023-02-26T05:57:50.335Z,102064.34
2023-02-26T06:00:17.358Z,102066.97
2023-02-26T06:02:43.919Z,102073.19
2023-02-26T06:05:10.561Z,102067.00
2023-02-26T06:07:37.261Z,102078.47
2023-02-26T06:10:04.204Z,102085.56
2023-02-26T06:12:30.694Z,102087.34
2023-02-26T06:14:57.171Z,102090.84
2023-02-26T06:17:23.805Z,102091.72
2023-02-26T06:19:50.310Z,102097.88
2023-02-26T06:22:16.798Z,102096.13
2023-02-26T06:24:43.610Z,102103.19
2023-02-26T06:27:10.273Z,102106.69
2023-02-26T06:29:37.640Z,102111.13
2023-02-26T06:32:05.151Z,102110.22
2023-02-26T06:34:31.963Z,102111.94
2023-02-26T06:36:58.467Z,102120.78
2023-02-26T06:39:25.274Z,102120.78
2023-02-26T06:41:52.131Z,102133.13
2023-02-26T06:44:18.741Z,102135.81
2023-02-26T06:46:45.290Z,102141.97
2023-02-26T06:49:11.858Z,102145.50
2023-02-26T06:51:38.556Z,102146.34
2023-02-26T06:54:05.219Z,102161.34
2023-02-26T06:56:31.836Z,102158.66
2023-02-26T06:58:58.388Z,102174.53
2023-02-26T07:01:25.052Z,102174.50
2023-02-26T07:03:51.681Z,102177.13
2023-02-26T07:06:27.471Z,102183.28
2023-02-26T07:09:04.804Z,102183.19
2023-02-26T07:11:31.354Z,102184.06
2023-02-26T07:13:57.955Z,102192.00
2023-02-26T07:16:26.945Z,102200.81
2023-02-26T07:18:53.682Z,102202.53
2023-02-26T07:21:21.343Z,102204.22
2023-02-26T07:23:47.916Z,102211.22
2023-02-26T07:26:15.125Z,102212.84
2023-02-26T07:28:41.754Z,102220.63
2023-02-26T07:31:08.459Z,102220.44
2023-02-26T07:33:35.203Z,102235.31
2023-02-26T07:36:02.084Z,102231.53
2023-02-26T07:38:28.726Z,102241.06
2023-02-26T07:40:56.555Z,102241.69
2023-02-26T07:43:24.195Z,102239.72
2023-02-26T07:45:52.064Z,102241.25
2023-02-26T07:48:18.844Z,102249.03
2023-02-26T07:50:45.786Z,102254.13
2023-02-26T07:53:12.937Z,102254.00
2023-02-26T07:55:39.588Z,102248.56
2023-02-26T07:58:06.207Z,102254.56
2023-02-26T08:00:33.263Z,102258.81
2023-02-26T08:02:59.888Z,102262.25
2023-02-26T08:05:28.310Z,102266.59
2023-02-26T08:07:56.547Z,102269.97
2023-02-26T08:10:23.406Z,102273.31
2023-02-26T08:12:50.002Z,102269.63
2023-02-26T08:15:16.553Z,102266.00
2023-02-26T08:17:43.109Z,102270.34
2023-02-26T08:20:11.816Z,102264.03
2023-02-26T08:22:38.505Z,102266.56
2023-02-26T08:25:05.552Z,102274.47
2023-02-26T08:27:32.972Z,102272.59
2023-02-26T08:29:59.953Z,102282.19
2023-02-26T08:32:28.264Z,102285.50
2023-02-26T08:34:55.673Z,102287.00
2023-02-26T08:37:25.202Z,102289.31
2023-02-26T08:39:52.843Z,102301.38
2023-02-26T08:42:20.614Z,102301.06
2023-02-26T08:44:48.002Z,102313.19
2023-02-26T08:47:17.124Z,102309.28
2023-02-26T08:49:51.216Z,102314.19
2023-02-26T08:52:18.060Z,102312.94
2023-02-26T08:54:44.709Z,102323.19
2023-02-26T08:57:11.385Z,102332.59
2023-02-26T08:59:38.021Z,102336.69
2023-02-26T09:02:04.675Z,102338.03
2023-02-26T09:04:31.401Z,102343.84
2023-02-26T09:06:58.038Z,102344.31
2023-02-26T09:09:24.569Z,102349.34
2023-02-26T09:11:51.104Z,102354.44
2023-02-26T09:14:17.748Z,102357.72
2023-02-26T09:16:44.400Z,102363.78
2023-02-26T09:19:11.324Z,102365.31
2023-02-26T09:21:38.073Z,102355.28
2023-02-26T09:24:04.734Z,102356.88
2023-02-26T09:26:31.659Z,102364.63
2023-02-26T09:28:58.173Z,102375.06
2023-02-26T09:31:24.766Z,102378.38
2023-02-26T09:33:51.420Z,102377.28
2023-02-26T09:36:17.992Z,102382.31
2023-02-26T09:38:45.994Z,102389.13
2023-02-26T09:41:30.196Z,102387.13
2023-02-26T09:44:15.262Z,102389.75
2023-02-26T09:46:53.984Z,102393.19
2023-02-26T09:49:35.273Z,102398.38
2023-02-26T09:52:16.975Z,102399.31
2023-02-26T09:54:50.863Z,102399.47
2023-02-26T09:57:31.604Z,102408.69
2023-02-26T10:00:00.582Z,102410.44
2023-02-26T10:02:40.671Z,102408.50
2023-02-26T10:05:28.140Z,102418.78
2023-02-26T10:08:00.592Z,102427.22
2023-02-26T10:11:09.808Z,102434.09
2023-02-26T10:13:56.013Z,102430.44
2023-02-26T10:16:28.356Z,102430.66
2023-02-26T10:19:04.835Z,102441.56
2023-02-26T10:21:47.402Z,102436.41
2023-02-26T10:24:24.936Z,102433.06
2023-02-26T10:26:58.754Z,102429.50
2023-02-26T10:29:35.205Z,102427.69
2023-02-26T10:32:20.752Z,102431.06
2023-02-26T10:34:54.795Z,102433.06
2023-02-26T10:37:36.278Z,102434.91
2023-02-26T10:40:29.240Z,102439.72
2023-02-26T10:43:03.030Z,102434.00
2023-02-26T10:45:54.949Z,102435.50
2023-02-26T10:48:36.750Z,102443.25
2023-02-26T10:51:12.814Z,102435.94
2023-02-26T10:53:42.263Z,102437.44
2023-02-26T10:56:15.679Z,102440.75
2023-02-26T10:58:42.264Z,102436.00
2023-02-26T11:01:20.158Z,102443.88
2023-02-26T11:03:50.075Z,102434.50
2023-02-26T11:06:24.930Z,102434.03
2023-02-26T11:08:54.288Z,102443.38
2023-02-26T11:11:41.297Z,102442.91
2023-02-26T11:14:09.348Z,102447.94
2023-02-26T11:16:43.074Z,102434.41
2023-02-26T11:19:12.169Z,102445.59
2023-02-26T11:21:41.058Z,102440.72
2023-02-26T11:24:23.668Z,102439.44
2023-02-26T11:26:51.758Z,102436.34
2023-02-26T11:29:20.525Z,102433.28
2023-02-26T11:31:58.451Z,102436.16
2023-02-26T11:34:26.482Z,102434.84
2023-02-26T11:36:58.807Z,102431.94
2023-02-26T11:39:28.690Z,102411.91
2023-02-26T11:42:01.048Z,102429.78
2023-02-26T11:44:38.655Z,102433.19
2023-02-26T11:47:12.766Z,102428.47
2023-02-26T11:49:50.927Z,102420.84
2023-02-26T11:52:20.559Z,102422.00
2023-02-26T11:55:01.215Z,102426.56
2023-02-26T11:57:29.606Z,102413.06
2023-02-26T11:59:59.214Z,102418.44
2023-02-26T12:02:31.806Z,102420.47
2023-02-26T12:05:02.623Z,102415.44
2023-02-26T12:07:30.832Z,102421.03
2023-02-26T12:09:57.395Z,102427.56
2023-02-26T12:12:50.598Z,102417.84
2023-02-26T12:15:28.441Z,102422.34
2023-02-26T12:18:04.345Z,102414.19
2023-02-26T12:20:47.874Z,102415.88
2023-02-26T12:23:26.018Z,102412.91
2023-02-26T12:26:24.562Z,102418.06
2023-02-26T12:28:59.697Z,102419.31
2023-02-26T12:31:42.323Z,102419.88
2023-02-26T12:34:08.915Z,102414.94
2023-02-26T12:37:13.799Z,102409.28
2023-02-26T12:40:02.542Z,102417.91
2023-02-26T12:42:38.388Z,102409.63
2023-02-26T12:45:29.608Z,102412.94
2023-02-26T12:48:17.756Z,102413.50
2023-02-26T12:50:54.104Z,102412.25
2023-02-26T12:53:33.135Z,102410.13
2023-02-26T12:56:20.570Z,102408.88
2023-02-26T12:59:18.428Z,102415.59
2023-02-26T13:02:01.777Z,102414.34
2023-02-26T13:04:51.432Z,102401.69
2023-02-26T13:07:55.041Z,102412.22
2023-02-26T13:10:29.354Z,102412.94
2023-02-26T13:13:29.673Z,102408.44
2023-02-26T13:16:20.901Z,102403.13
2023-02-26T13:18:58.956Z,102409.69
2023-02-26T13:21:33.516Z,102411.75
2023-02-26T13:24:12.543Z,102419.03
2023-02-26T13:26:41.327Z,102419.03
2023-02-26T13:29:27.524Z,102421.78
2023-02-26T13:32:00.119Z,102416.25
2023-02-26T13:34:42.447Z,102412.47
2023-02-26T13:37:24.099Z,102407.00
2023-02-26T13:40:01.860Z,102406.13
2023-02-26T13:42:51.414Z,102412.47
2023-02-26T13:45:22.199Z,102408.66
2023-02-26T13:48:14.339Z,102408.59
2023-02-26T13:51:08.922Z,102409.97
2023-02-26T13:53:41.327Z,102413.94
2023-02-26T13:56:32.444Z,102407.47
2023-02-26T13:59:16.405Z,102408.97
2023-02-26T14:01:48.824Z,102401.59
2023-02-26T14:04:24.837Z,102401.84
2023-02-26T14:06:57.448Z,102400.34
2023-02-26T14:09:24.016Z,102402.88
2023-02-26T14:12:02.309Z,102401.69
2023-02-26T14:14:31.837Z,102396.06
2023-02-26T14:16:58.380Z,102400.50
2023-02-26T14:19:34.595Z,102391.63
2023-02-26T14:22:23.887Z,102398.91
2023-02-26T14:24:58.310Z,102402.56
2023-02-26T14:27:33.312Z,102400.88
2023-02-26T14:30:04.123Z,102399.31
2023-02-26T14:32:35.116Z,102402.28
2023-02-26T14:35:16.762Z,102402.28
2023-02-26T14:37:46.576Z,102406.88
2023-02-26T14:40:20.604Z,102406.09
2023-02-26T14:42:53.057Z,102409.88
2023-02-26T14:45:30.641Z,102409.22
2023-02-26T14:47:59.435Z,102409.53
2023-02-26T14:50:34.064Z,102416.03
2023-02-26T14:53:21.606Z,102410.72
2023-02-26T14:56:02.664Z,102406.19
2023-02-26T14:58:35.344Z,102408.34
2023-02-26T15:01:21.385Z,102411.25
2023-02-26T15:04:08.043Z,102419.41
2023-02-26T15:06:46.715Z,102413.31
2023-02-26T15:09:36.671Z,102411.72
2023-02-26T15:12:25.701Z,102416.59
2023-02-26T15:14:58.176Z,102420.69
2023-02-26T15:17:33.517Z,102423.84
2023-02-26T15:20:26.853Z,102421.34
2023-02-26T15:23:06.014Z,102418.00
2023-02-26T15:25:36.335Z,102414.81
2023-02-26T15:28:05.718Z,102416.84
2023-02-26T15:30:34.497Z,102423.38
2023-02-26T15:33:05.874Z,102418.38
2023-02-26T15:35:34.883Z,102427.59
2023-02-26T15:38:04.061Z,102419.00
2023-02-26T15:40:34.583Z,102430.19
2023-02-26T15:43:03.060Z,102431.41
2023-02-26T15:45:37.189Z,102434.44
2023-02-26T15:48:20.103Z,102435.75
2023-02-26T15:50:52.667Z,102428.91
2023-02-26T15:53:28.518Z,102427.47
2023-02-26T15:55:58.329Z,102431.31
2023-02-26T15:58:45.142Z,102426.34
2023-02-26T16:01:17.386Z,102428.34
2023-02-26T16:03:44.556Z,102434.94
2023-02-26T16:06:25.730Z,102437.88
2023-02-26T16:08:52.572Z,102443.44
2023-02-26T16:11:21.770Z,102444.50
2023-02-26T16:13:52.808Z,102451.00
2023-02-26T16:16:26.676Z,102443.97
2023-02-26T16:18:55.606Z,102445.16
2023-02-26T16:21:36.475Z,102453.47
2023-02-26T16:24:07.103Z,102453.66
2023-02-26T16:26:38.143Z,102454.72
2023-02-26T16:29:12.889Z,102450.47
2023-02-26T16:31:41.629Z,102453.34
2023-02-26T16:34:40.041Z,102465.19
2023-02-26T16:37:37.806Z,102460.94
2023-02-26T16:40:27.596Z,102467.38
2023-02-26T16:43:02.005Z,102468.47
2023-02-26T16:45:37.638Z,102469.59
2023-02-26T16:48:12.675Z,102472.44
2023-02-26T16:50:39.419Z,102471.63
2023-02-26T16:53:09.737Z,102474.50
2023-02-26T16:55:39.499Z,102480.84
2023-02-26T16:58:14.376Z,102477.44
2023-02-26T17:00:45.444Z,102487.44
2023-02-26T17:03:16.622Z,102489.38
2023-02-26T17:06:07.456Z,102488.63
2023-02-26T17:08:42.288Z,102496.72
2023-02-26T17:11:20.400Z,102500.44
2023-02-26T17:14:03.073Z,102498.78
2023-02-26T17:16:29.781Z,102505.25
2023-02-26T17:18:56.583Z,102517.13
2023-02-26T17:21:23.195Z,102516.56
2023-02-26T17:23:50.876Z,102515.84
2023-02-26T17:26:17.452Z,102519.66
2023-02-26T17:28:44.157Z,102516.25
2023-02-26T17:31:12.592Z,102526.28
2023-02-26T17:33:42.083Z,102523.75
2023-02-26T17:36:18.801Z,102522.09
2023-02-26T17:38:47.711Z,102525.75
2023-02-26T17:41:17.216Z,102523.19
2023-02-26T17:43:43.738Z,102531.25
2023-02-26T17:46:12.446Z,102530.50
2023-02-26T17:48:39.668Z,102525.28
2023-02-26T17:51:07.129Z,102533.53
2023-02-26T17:53:40.913Z,102532.84
2023-02-26T17:56:30.201Z,102533.97
2023-02-26T17:58:58.478Z,102529.59
2023-02-26T18:01:28.518Z,102536.84
2023-02-26T18:03:55.793Z,102537.81
2023-02-26T18:06:24.430Z,102544.25
2023-02-26T18:08:51.064Z,102544.38
2023-02-26T18:11:17.908Z,102548.97
2023-02-26T18:13:44.442Z,102544.72
2023-02-26T18:16:18.704Z,102551.94
2023-02-26T18:18:45.396Z,102555.63
2023-02-26T18:21:12.747Z,102552.16
2023-02-26T18:23:40.103Z,102551.38
2023-02-26T18:26:07.048Z,102554.97
2023-02-26T18:28:33.786Z,102546.97
2023-02-26T18:31:00.587Z,102558.63
2023-02-26T18:33:27.242Z,102553.41
2023-02-26T18:35:56.783Z,102558.06
2023-02-26T18:38:26.881Z,102555.53
2023-02-26T18:40:54.139Z,102573.50
2023-02-26T18:43:21.387Z,102565.66
2023-02-26T18:45:49.262Z,102570.25
2023-02-26T18:48:19.493Z,102565.03
2023-02-26T18:50:46.935Z,102578.53
2023-02-26T18:53:14.997Z,102580.41
2023-02-26T18:55:41.531Z,102581.47
2023-02-26T18:58:08.275Z,102586.88
2023-02-26T19:00:35.415Z,102584.28
2023-02-26T19:03:02.262Z,102591.44
2023-02-26T19:05:28.795Z,102588.81
2023-02-26T19:07:55.619Z,102593.28
2023-02-26T19:10:22.687Z,102593.34
2023-02-26T19:12:50.956Z,102592.59
2023-02-26T19:15:18.249Z,102598.03
2023-02-26T19:17:45.157Z,102593.63
2023-02-26T19:20:13.011Z,102601.69
2023-02-26T19:22:40.421Z,102604.44
2023-02-26T19:25:07.519Z,102612.50
2023-02-26T19:27:34.667Z,102612.56
2023-02-26T19:30:03.555Z,102613.47
2023-02-26T19:32:30.859Z,102612.59
2023-02-26T19:34:57.544Z,102613.47
2023-02-26T19:37:24.398Z,102623.25
2023-02-26T19:39:51.121Z,102626.81
2023-02-26T19:42:18.175Z,102626.00
2023-02-26T19:44:44.707Z,102624.22
2023-02-26T19:47:11.347Z,102623.31
2023-02-26T19:49:38.034Z,102632.19
2023-02-26T19:52:04.822Z,102625.13
2023-02-26T19:54:31.667Z,102630.44
2023-02-26T19:56:58.192Z,102630.50
2023-02-26T19:59:24.834Z,102634.06
2023-02-26T20:01:51.917Z,102641.25
2023-02-26T20:04:19.024Z,102640.31
2023-02-26T20:06:45.971Z,102643.03
2023-02-26T20:09:14.146Z,102636.81
2023-02-26T20:11:40.791Z,102639.47
2023-02-26T20:14:08.544Z,102645.69
2023-02-26T20:16:35.181Z,102643.06
2023-02-26T20:19:01.920Z,102648.41
2023-02-26T20:21:28.800Z,102645.75
2023-02-26T20:23:56.829Z,102650.19
2023-02-26T20:26:23.563Z,102657.31
2023-02-26T20:28:50.417Z,102664.50
2023-02-26T20:31:17.111Z,102653.91
2023-02-26T20:33:43.858Z,102662.84
2023-02-26T20:36:10.836Z,102658.44
2023-02-26T20:38:37.776Z,102664.69
2023-02-26T20:41:05.126Z,102657.63
2023-02-26T20:43:32.332Z,102670.13
2023-02-26T20:45:59.112Z,102667.53
2023-02-26T20:48:26.591Z,102669.34
2023-02-26T20:50:57.917Z,102672.94
2023-02-26T20:53:24.550Z,102671.19
2023-02-26T20:55:51.190Z,102679.22
2023-02-26T20:58:17.832Z,102681.03
2023-02-26T21:00:45.871Z,102681.09
2023-02-26T21:03:12.758Z,102682.03
2023-02-26T21:05:39.933Z,102687.44
2023-02-26T21:08:06.522Z,102685.72
2023-02-26T21:10:33.270Z,102683.09
2023-02-26T21:13:00.305Z,102695.56
2023-02-26T21:15:26.949Z,102691.16
2023-02-26T21:17:53.893Z,102693.81
2023-02-26T21:20:22.333Z,102692.09
2023-02-26T21:22:49.668Z,102689.47
2023-02-26T21:25:16.967Z,102691.28
2023-02-26T21:27:44.120Z,102700.22
2023-02-26T21:30:12.411Z,102702.09
2023-02-26T21:32:40.178Z,102695.91
2023-02-26T21:35:08.861Z,102696.84
2023-02-26T21:37:35.490Z,102700.47
2023-02-26T21:40:02.196Z,102705.84
2023-02-26T21:42:28.730Z,102704.94
2023-02-26T21:44:55.286Z,102708.53
2023-02-26T21:47:21.824Z,102701.47
2023-02-26T21:49:48.468Z,102713.94
2023-02-26T21:52:15.295Z,102717.47
2023-02-26T21:54:41.933Z,102720.13
2023-02-26T21:57:08.666Z,102720.16
2023-02-26T21:59:35.617Z,102714.91
2023-02-26T22:02:02.829Z,102713.22
2023-02-26T22:04:29.807Z,102718.59
2023-02-26T22:06:56.767Z,102718.69
2023-02-26T22:09:23.693Z,102722.31
2023-02-26T22:11:50.429Z,102716.16
2023-02-26T22:14:17.370Z,102722.38
2023-02-26T22:16:43.957Z,102719.75
2023-02-26T22:19:10.856Z,102719.81
2023-02-26T22:21:37.388Z,102718.06
2023-02-26T22:24:05.274Z,102722.50
2023-02-26T22:26:31.999Z,102718.97
2023-02-26T22:29:00.644Z,102716.38
2023-02-26T22:31:32.003Z,102718.19
2023-02-26T22:33:59.481Z,102721.78
2023-02-26T22:36:26.115Z,102717.38
2023-02-26T22:38:52.758Z,102715.69
2023-02-26T22:41:19.287Z,102713.97
2023-02-26T22:43:45.923Z,102711.38
2023-02-26T22:46:12.600Z,102714.97
2023-02-26T22:48:39.200Z,102712.31
2023-02-26T22:51:05.834Z,102719.44
2023-02-26T22:53:32.481Z,102716.78
2023-02-26T22:55:59.213Z,102723.06
2023-02-26T22:58:25.749Z,102722.22
2023-02-26T23:01:07.092Z,102732.00
2023-02-26T23:03:34.175Z,102728.50
2023-02-26T23:06:01.123Z,102723.19
2023-02-26T23:08:27.989Z,102728.56
2023-02-26T23:10:58.907Z,102728.59
2023-02-26T23:13:27.374Z,102733.06
2023-02-26T23:15:54.089Z,102731.28
2023-02-26T23:18:20.861Z,102733.09
2023-02-26T23:20:48.415Z,102734.00
2023-02-26T23:23:16.188Z,102732.22
2023-02-26T23:25:43.752Z,102734.88
2023-02-26T23:28:11.856Z,102726.06
2023-02-26T23:30:39.143Z,102736.72
2023-02-26T23:33:07.340Z,102739.44
2023-02-26T23:35:35.229Z,102735.03
2023-02-26T23:38:02.139Z,102736.84
2023-02-26T23:40:28.929Z,102736.84
2023-02-26T23:42:56.125Z,102738.66
2023-02-26T23:45:22.976Z,102749.38
2023-02-26T23:47:49.500Z,102746.69
2023-02-26T23:50:16.131Z,102739.66
2023-02-26T23:52:42.768Z,102744.09
2023-02-26T23:55:10.226Z,102748.56
2023-02-26T23:57:37.168Z,102752.97
